Aviation Digital Data Service (ADDS)

Output produced by METARs form (1541 UTC 25 September 2016)
found at http://aviationweather.gov/adds/metars/
 
KBOS 251510Z 2515/2618 32014G24KT P6SM SKC 
     FM260000 34008KT P6SM SKC 
     FM260600 34005KT P6SM SKC 
     FM261400 06005KT P6SM SKC 
     FM261600 12008KT P6SM SKC